Airfield :
LOGIN :

Register | Disclaimer

   EN    FR    IT 

 










Legend :    VFR   Marginal VFR   IFR   Intensive IFR   Very Intensive IFR
Visi :
Ceiling :
>= 8 km
>= 3000ft
5 to 8 km
1000 to 3000 ft
1500m to 5 km
500 to 1000 ft
800 to 1500m
200 to 500 ft
< 800m
< 200 ft
Symbols :   Thunderstorms  Fog  Heavy snow  Heavy precipitations  Wind > 20 kt
SIGMETs :     Misc.  Thunderstorms  Icing  Turbulence  Mountain Waves  Volcanic Ashes






- Airport Elevation : 299 ft
- IATA code : EDM


LFRI - La Roche Sur Yon - Les Ajoncs

CURRENT METAR :
  • 241230Z AUTO 23009KT 190V260 9999 FEW005/// SCT041/// BKN050/// ///CB 09/06 Q1003 TEMPO VRB15G25KT 4000 SHRA BKN008 BKN018CB

EXPIRED METARs :
  • 241200Z AUTO 27012KT 240V300 9999 -TSRA SCT022/// BKN035/// BKN044/// ///CB 08/04 Q1003 TEMPO VRB20G35KT 2000 TSRAGS BKN008 BKN018CB
  • 241130Z AUTO 20012KT 9999 -RA VCTS SCT035/// BKN052/// BKN120/// ///CB 09/06 Q1003 TEMPO VRB20G35KT 2000 TSRAGS BKN008 BKN018CB
  • 241100Z AUTO 22011KT 190V250 9999 FEW024 BKN041 BKN058 09/05 Q1003 TEMPO VRB20G35KT 2000 TSRAGS BKN008 BKN018CB
  • 241030Z AUTO 21011KT CAVOK 10/05 Q1003 TEMPO VRB20G35KT 2000 TSRAGS BKN008 BKN018CB
  • 241000Z AUTO 20009KT CAVOK 08/05 Q1003 TEMPO VRB20G35KT 2000 TSRAGS BKN008 BKN018CB
  • 240930Z AUTO 18005KT 140V210 9999 FEW045/// ///TCU 08/06 Q1003 TEMPO VRB20G35KT 2000 TSRAGS BKN008 BKN018CB
  • 240900Z AUTO 25007KT 210V280 9999 -RA FEW028/// SCT034/// BKN042/// ///TCU 06/04 Q1003 TEMPO VRB20G35KT 2000 TSRAGS BKN008 BKN018CB
  • 240830Z AUTO 18004KT 9999 SCT034 BKN042 BKN048 05/04 Q1002 TEMPO VRB20G35KT 2000 TSRAGS BKN008 BKN018CB
  • 240800Z AUTO 18006KT CAVOK 03/03 Q1002 TEMPO VRB15G25KT 4000 SHRA SCT010 BKN020CB

TAF TAF LFRI
Valid from the 24 at 12:00 until the 25 at 12:00 UTC


241100Z 2412/2512 21008KT 9999 SCT030
TEMPO 2412/2418 VRB15G25KT 4000 SHRA SCT010 BKN020CB
PROB40
TEMPO 2412/2414 VRB20G35KT 2000 TSRAGS BKN008 BKN018CB
TEMPO 2418/2501 4500 SHRA BKN025TCU
BECMG 2501/2503 4500 -RA BKN016
TEMPO 2503/2512 17015G30KT 2500 RA BKN007
PROB40
TEMPO 2506/2512 0800 FG BKN002



MET'MAP, your aeronautical weather chart ! - Copyright ORBIFLY December 2007 - Disclaimer

ORBIFLY MET'MAP TEAM :

Programming & Development : Alexandra Zaïnal
Original concept : Baudouin d'Aumeries
Technical & hardware support : Manuel Goepfert
Assistance : Marc-Olivier Méhu




SOURCES & CREDITS :

   NOAA